Time;durP1;ratioP1;P1;durP2;ratioP2;P2;SDS_P1;SDS_P2;PMS_P1;PMS_P2;Temp;Humidity;BMP_temperature;BMP_pressure;BME280_temperature;BME280_humidity;BME280_pressure;Samples;Min_cycle;Max_cycle;Signal;HPM_P1;HPM_P2
2021/03/21 00:01:04;;;;;;;1999.90;999.90;;;5.70;99.90;;;;;;5035769;28;20399;-69
2021/03/21 00:03:30;;;;;;;1999.90;999.90;;;5.80;99.90;;;;;;5037991;28;20430;-70
2021/03/21 00:05:55;;;;;;;1999.90;999.90;;;5.80;99.90;;;;;;5035812;28;21101;-68
2021/03/21 00:08:27;;;;;;;1999.90;999.90;;;5.80;99.90;;;;;;5033390;28;20191;-68
2021/03/21 00:10:56;;;;;;;1999.90;999.90;;;5.90;99.90;;;;;;5033171;28;20215;-68
2021/03/21 00:13:23;;;;;;;1999.90;999.90;;;5.80;99.90;;;;;;5033215;28;20458;-68
2021/03/21 00:15:50;;;;;;;1999.90;999.90;;;5.90;99.90;;;;;;5032867;28;20399;-69
2021/03/21 00:18:17;;;;;;;1999.90;999.90;;;5.90;99.90;;;;;;5033159;28;20403;-69
2021/03/21 00:20:43;;;;;;;1999.90;999.90;;;6.00;99.90;;;;;;5031713;28;20439;-69
2021/03/21 00:23:08;;;;;;;1999.90;999.90;;;6.00;99.90;;;;;;5033084;28;20497;-69
2021/03/21 00:25:36;;;;;;;1999.90;999.90;;;6.00;99.90;;;;;;5032681;28;20164;-69
2021/03/21 00:28:05;;;;;;;1999.90;999.90;;;6.10;99.90;;;;;;5034047;28;20164;-70
2021/03/21 00:30:36;;;;;;;1999.90;999.90;;;6.10;99.90;;;;;;5038133;28;20427;-69
2021/03/21 00:33:04;;;;;;;1999.90;999.90;;;6.20;99.90;;;;;;5036215;28;20532;-69
2021/03/21 00:35:30;;;;;;;1999.90;999.90;;;6.20;99.90;;;;;;5032401;28;20403;-68
2021/03/21 00:38:01;;;;;;;1999.90;999.90;;;6.20;99.90;;;;;;5035625;28;20461;-69
2021/03/21 00:40:29;;;;;;;1999.90;999.90;;;6.20;99.90;;;;;;5037666;28;20247;-69
2021/03/21 00:42:55;;;;;;;1999.90;999.90;;;6.20;99.90;;;;;;5037058;28;20410;-69
2021/03/21 00:45:22;;;;;;;1999.90;999.90;;;6.10;99.90;;;;;;5037708;28;20860;-70
2021/03/21 00:47:48;;;;;;;1999.90;999.90;;;6.10;99.90;;;;;;5037310;28;20419;-70
2021/03/21 00:50:20;;;;;;;1999.90;999.90;;;6.10;99.90;;;;;;5037180;28;20435;-70
2021/03/21 00:52:46;;;;;;;1999.90;999.90;;;6.00;99.90;;;;;;5036763;28;20420;-69
2021/03/21 00:55:13;;;;;;;1999.90;999.90;;;6.00;99.90;;;;;;5033402;28;20772;-68
2021/03/21 00:57:40;;;;;;;1999.90;999.90;;;6.00;99.90;;;;;;5032397;28;20274;-68
2021/03/21 01:00:09;;;;;;;1999.90;999.90;;;6.00;99.90;;;;;;5032336;28;20787;-69
2021/03/21 01:02:35;;;;;;;1999.90;999.90;;;5.90;99.90;;;;;;5032360;28;20490;-68
2021/03/21 01:05:01;;;;;;;1999.90;999.90;;;5.90;99.90;;;;;;5032196;28;20561;-69
2021/03/21 01:07:26;;;;;;;1999.90;999.90;;;5.90;99.90;;;;;;5035893;28;20161;-69
2021/03/21 01:09:52;;;;;;;1999.90;999.90;;;5.90;99.90;;;;;;5034562;28;20451;-68
2021/03/21 01:12:17;;;;;;;1999.90;999.90;;;5.80;99.90;;;;;;5032284;28;20555;-67
2021/03/21 01:14:43;;;;;;;1999.90;999.90;;;5.70;99.90;;;;;;5032056;28;20570;-69
2021/03/21 01:17:09;;;;;;;1999.90;999.90;;;5.70;99.90;;;;;;5032104;28;20196;-68
2021/03/21 01:19:34;;;;;;;1999.90;999.90;;;5.60;99.90;;;;;;5032103;28;20188;-69
2021/03/21 01:22:00;;;;;;;1999.90;999.90;;;5.50;99.90;;;;;;5032138;28;20192;-68
2021/03/21 01:24:26;;;;;;;1999.90;999.90;;;5.40;99.90;;;;;;5032109;28;20819;-68
2021/03/21 01:26:52;;;;;;;1999.90;999.90;;;5.40;99.90;;;;;;5031788;28;20172;-68
2021/03/21 01:29:18;;;;;;;1999.90;999.90;;;5.40;99.90;;;;;;5032023;28;20470;-69
2021/03/21 01:31:44;;;;;;;1999.90;999.90;;;5.40;99.90;;;;;;5032365;28;20431;-70
2021/03/21 01:34:12;;;;;;;1999.90;999.90;;;5.40;99.90;;;;;;5033564;28;20414;-70
2021/03/21 01:36:39;;;;;;;1999.90;999.90;;;5.40;99.90;;;;;;5032687;28;20442;-70
2021/03/21 01:39:17;;;;;;;1999.90;999.90;;;5.30;99.90;;;;;;5033242;28;20779;-69
2021/03/21 01:41:42;;;;;;;1999.90;999.90;;;5.40;99.90;;;;;;5033503;28;20438;-70
2021/03/21 01:44:13;;;;;;;1999.90;999.90;;;5.40;99.90;;;;;;5033030;28;20411;-70
2021/03/21 01:46:39;;;;;;;1999.90;999.90;;;5.40;99.90;;;;;;5033061;28;20184;-69
2021/03/21 01:49:13;;;;;;;1999.90;999.90;;;5.40;99.90;;;;;;5033380;28;20419;-70
2021/03/21 01:51:40;;;;;;;1999.90;999.90;;;5.40;99.90;;;;;;5033011;28;20167;-69
2021/03/21 01:54:12;;;;;;;1999.90;999.90;;;5.40;99.90;;;;;;5031951;28;20439;-69
2021/03/21 01:56:39;;;;;;;1999.90;999.90;;;5.30;99.90;;;;;;5035429;28;20450;-69
2021/03/21 01:59:10;;;;;;;1999.90;999.90;;;5.30;99.90;;;;;;5037347;28;20573;-70
2021/03/21 02:01:36;;;;;;;1999.90;999.90;;;5.30;99.90;;;;;;5038813;28;20405;-69
2021/03/21 02:04:02;;;;;;;1999.90;999.90;;;5.40;99.90;;;;;;5039004;28;20410;-69
2021/03/21 02:06:48;;;;;;;1999.90;999.90;;;5.50;99.90;;;;;;5037908;28;20414;-69
2021/03/21 02:09:41;;;;;;;1999.90;999.90;;;5.50;99.90;;;;;;5027953;28;20516;-69
2021/03/21 02:12:07;;;;;;;1999.90;999.90;;;5.50;99.90;;;;;;5035584;28;20439;-68
2021/03/21 02:14:44;;;;;;;1999.90;999.90;;;5.40;99.90;;;;;;5035478;28;20966;-68
2021/03/21 02:17:34;;;;;;;1999.90;999.90;;;5.40;99.90;;;;;;5035222;28;20469;-69
2021/03/21 02:20:28;;;;;;;1999.90;999.90;;;5.40;99.90;;;;;;5035314;28;20538;-69
2021/03/21 02:23:00;;;;;;;1999.90;999.90;;;5.40;99.90;;;;;;5035447;28;20399;-69
2021/03/21 02:25:36;;;;;;;1999.90;999.90;;;5.40;99.90;;;;;;5035044;28;20405;-68
2021/03/21 02:28:58;;;;;;;1999.90;999.90;;;5.40;99.90;;;;;;5035367;28;20813;-69
2021/03/21 02:31:36;;;;;;;1999.90;999.90;;;5.40;99.90;;;;;;4993518;28;20960;-69
2021/03/21 02:34:09;;;;;;;1999.90;999.90;;;5.50;99.90;;;;;;5030100;28;21040;-69
2021/03/21 02:36:38;;;;;;;1999.90;999.90;;;5.50;99.90;;;;;;5034738;28;20464;-69
2021/03/21 02:39:12;;;;;;;1999.90;999.90;;;5.50;99.90;;;;;;5034926;28;20510;-69
2021/03/21 02:41:46;;;;;;;1999.90;999.90;;;5.40;99.90;;;;;;5035490;28;20487;-70
2021/03/21 02:44:24;;;;;;;1999.90;999.90;;;5.40;99.90;;;;;;5035852;28;20414;-69
2021/03/21 02:47:19;;;;;;;1999.90;999.90;;;5.40;99.90;;;;;;5035723;28;20460;-70
2021/03/21 02:49:51;;;;;;;1999.90;999.90;;;5.40;99.90;;;;;;5034348;28;20522;-69
2021/03/21 02:52:43;;;;;;;1999.90;999.90;;;5.40;99.90;;;;;;5035592;28;20411;-69
2021/03/21 02:55:20;;;;;;;1999.90;999.90;;;5.40;99.90;;;;;;5034183;28;20510;-68
2021/03/21 02:57:53;;;;;;;1999.90;999.90;;;5.50;99.90;;;;;;5034868;28;20473;-70
2021/03/21 03:00:28;;;;;;;1999.90;999.90;;;5.50;99.90;;;;;;5034782;28;20434;-69
2021/03/21 03:02:58;;;;;;;1999.90;999.90;;;5.40;99.90;;;;;;5034575;28;20963;-69
2021/03/21 03:05:29;;;;;;;1999.90;999.90;;;5.40;99.90;;;;;;5034138;28;20418;-69
2021/03/21 03:08:28;;;;;;;1999.90;999.90;;;5.40;99.90;;;;;;5034520;28;20398;-69
2021/03/21 03:10:58;;;;;;;1999.90;999.90;;;5.30;99.90;;;;;;5034501;28;20442;-69
2021/03/21 03:13:29;;;;;;;1999.90;999.90;;;5.30;99.90;;;;;;5036851;28;20595;-69
2021/03/21 03:16:00;;;;;;;1999.90;999.90;;;5.20;99.90;;;;;;5036669;28;20404;-69
2021/03/21 03:18:35;;;;;;;1999.90;999.90;;;5.20;99.90;;;;;;5037067;28;20810;-69
2021/03/21 03:21:28;;;;;;;1999.90;999.90;;;5.20;99.90;;;;;;5037107;28;20430;-69
2021/03/21 03:24:20;;;;;;;1999.90;999.90;;;5.30;99.90;;;;;;5031429;28;20423;-69
2021/03/21 03:26:59;;;;;;;1999.90;999.90;;;5.30;99.90;;;;;;5033876;28;20884;-68
2021/03/21 03:29:32;;;;;;;1999.90;999.90;;;5.30;99.90;;;;;;5034104;28;20427;-68
2021/03/21 03:32:00;;;;;;;1999.90;999.90;;;5.30;99.90;;;;;;5034168;28;20606;-68
2021/03/21 03:34:28;;;;;;;1999.90;999.90;;;5.30;99.90;;;;;;5034273;28;20403;-68
2021/03/21 03:36:54;;;;;;;1999.90;999.90;;;5.40;99.90;;;;;;5033687;28;20454;-68
2021/03/21 03:39:21;;;;;;;1999.90;999.90;;;5.40;99.90;;;;;;5033882;28;20426;-68
2021/03/21 03:42:03;;;;;;;1999.90;999.90;;;5.40;99.90;;;;;;5033875;28;20164;-68
2021/03/21 03:44:36;;;;;;;1999.90;999.90;;;5.40;99.90;;;;;;5033847;28;20399;-68
2021/03/21 03:47:37;;;;;;;1999.90;999.90;;;5.40;99.90;;;;;;5033505;28;20403;-68
2021/03/21 03:50:16;;;;;;;1999.90;999.90;;;5.40;99.90;;;;;;5020328;28;20936;-68
2021/03/21 03:53:00;;;;;;;1999.90;999.90;;;5.40;99.90;;;;;;5033830;28;21065;-68
2021/03/21 03:55:34;;;;;;;1999.90;999.90;;;5.40;99.90;;;;;;5033365;28;21090;-68
2021/03/21 03:58:08;;;;;;;1999.90;999.90;;;5.40;99.90;;;;;;5035169;28;20982;-69
2021/03/21 04:01:10;;;;;;;1999.90;999.90;;;5.40;99.90;;;;;;5035292;28;20481;-69
2021/03/21 04:03:48;;;;;;;1999.90;999.90;;;5.40;99.90;;;;;;5033544;28;20402;-68
2021/03/21 04:06:23;;;;;;;1999.90;999.90;;;5.40;99.90;;;;;;5033497;28;21000;-69
2021/03/21 04:09:22;;;;;;;1999.90;999.90;;;5.40;99.90;;;;;;5033126;28;20805;-69
2021/03/21 04:12:11;;;;;;;1999.90;999.90;;;5.40;99.90;;;;;;5013734;28;20426;-69
2021/03/21 04:14:49;;;;;;;1999.90;999.90;;;5.40;99.90;;;;;;5033251;28;20172;-68
2021/03/21 04:17:26;;;;;;;1999.90;999.90;;;5.40;99.90;;;;;;5032529;28;20457;-69
2021/03/21 04:20:01;;;;;;;1999.90;999.90;;;5.40;99.90;;;;;;5033076;28;20427;-69
2021/03/21 04:22:37;;;;;;;1999.90;999.90;;;5.50;99.90;;;;;;5033448;28;20919;-70
2021/03/21 04:25:27;;;;;;;1999.90;999.90;;;5.40;99.90;;;;;;5032750;28;20427;-69
2021/03/21 04:28:16;;;;;;;1999.90;999.90;;;5.40;99.90;;;;;;5032916;28;20415;-69
2021/03/21 04:30:53;;;;;;;1999.90;999.90;;;5.40;99.90;;;;;;5032896;28;20427;-69
2021/03/21 04:33:23;;;;;;;1999.90;999.90;;;5.30;99.90;;;;;;5032945;28;20172;-69
2021/03/21 04:36:00;;;;;;;1999.90;999.90;;;5.30;99.90;;;;;;5032564;28;20411;-69
2021/03/21 04:38:33;;;;;;;1999.90;999.90;;;5.30;99.90;;;;;;5032907;28;20430;-68
2021/03/21 04:41:01;;;;;;;1999.90;999.90;;;5.40;99.90;;;;;;5032697;28;20426;-69
2021/03/21 04:43:31;;;;;;;1999.90;999.90;;;5.40;99.90;;;;;;5032746;28;20507;-69
2021/03/21 04:46:02;;;;;;;1999.90;999.90;;;5.40;99.90;;;;;;5032371;28;20402;-69
2021/03/21 04:48:28;;;;;;;1999.90;999.90;;;5.40;99.90;;;;;;5032572;28;20399;-68
2021/03/21 04:51:01;;;;;;;1999.90;999.90;;;5.40;99.90;;;;;;5032494;28;20498;-69
2021/03/21 04:53:44;;;;;;;1999.90;999.90;;;5.40;99.90;;;;;;5032685;28;20750;-69
2021/03/21 04:56:33;;;;;;;1999.90;999.90;;;5.50;99.90;;;;;;5032170;28;20468;-70
2021/03/21 04:59:24;;;;;;;1999.90;999.90;;;5.50;99.90;;;;;;5024955;28;20720;-69
2021/03/21 05:01:56;;;;;;;1999.90;999.90;;;5.50;99.90;;;;;;5032943;28;20410;-69
2021/03/21 05:04:26;;;;;;;1999.90;999.90;;;5.50;99.90;;;;;;5032456;28;20407;-69
2021/03/21 05:06:57;;;;;;;1999.90;999.90;;;5.50;99.90;;;;;;5032123;28;20406;-69
2021/03/21 05:09:28;;;;;;;1999.90;999.90;;;5.50;99.90;;;;;;5032166;28;21030;-69
2021/03/21 05:12:18;;;;;;;1999.90;999.90;;;5.40;99.90;;;;;;5032287;28;20395;-69
2021/03/21 05:15:02;;;;;;;1999.90;999.90;;;5.50;99.90;;;;;;5032041;28;20403;-69
2021/03/21 05:17:56;;;;;;;1999.90;999.90;;;5.50;99.90;;;;;;5032168;28;20955;-69
2021/03/21 05:20:29;;;;;;;1999.90;999.90;;;5.50;99.90;;;;;;5032154;28;20545;-69
2021/03/21 05:23:20;;;;;;;1999.90;999.90;;;5.50;99.90;;;;;;5032152;28;20541;-69
2021/03/21 05:25:52;;;;;;;1999.90;999.90;;;5.50;99.90;;;;;;5031794;28;20395;-69
2021/03/21 05:28:28;;;;;;;1999.90;999.90;;;5.50;99.90;;;;;;5032172;28;20888;-69
2021/03/21 05:30:54;;;;;;;1999.90;999.90;;;5.50;99.90;;;;;;5032192;28;20422;-69
2021/03/21 05:33:20;;;;;;;1999.90;999.90;;;5.50;99.90;;;;;;5032076;28;20404;-69
2021/03/21 05:35:45;;;;;;;1999.90;999.90;;;5.60;99.90;;;;;;5031804;28;20583;-68
2021/03/21 05:38:45;;;;;;;1999.90;999.90;;;5.60;99.90;;;;;;5032059;28;20222;-69
2021/03/21 05:41:46;;;;;;;1999.90;999.90;;;5.50;99.90;;;;;;5032252;28;20218;-70
2021/03/21 05:44:24;;;;;;;1999.90;999.90;;;5.50;99.90;;;;;;5008806;28;20669;-69
2021/03/21 05:47:14;;;;;;;1999.90;999.90;;;5.50;99.90;;;;;;5032024;28;20954;-70
2021/03/21 05:50:06;;;;;;;1999.90;999.90;;;5.50;99.90;;;;;;5031929;28;20431;-69
2021/03/21 05:52:56;;;;;;;1999.90;999.90;;;5.50;99.90;;;;;;5032000;28;20398;-69
2021/03/21 05:55:44;;;;;;;1999.90;999.90;;;5.60;99.90;;;;;;5031686;28;20834;-69
2021/03/21 05:58:34;;;;;;;1999.90;999.90;;;5.50;99.90;;;;;;5031862;28;20454;-69
2021/03/21 06:01:17;;;;;;;1999.90;999.90;;;5.50;99.90;;;;;;5032182;28;20419;-70
2021/03/21 06:04:10;;;;;;;1999.90;999.90;;;5.50;99.90;;;;;;5032836;28;20395;-70
2021/03/21 06:07:16;;;;;;;1999.90;999.90;;;5.50;99.90;;;;;;5032811;28;20808;-70
2021/03/21 06:09:51;;;;;;;1999.90;999.90;;;5.50;99.90;;;;;;5032050;28;20485;-70
2021/03/21 06:12:42;;;;;;;1999.90;999.90;;;5.50;99.90;;;;;;5033010;28;20409;-70
2021/03/21 06:15:41;;;;;;;1999.90;999.90;;;5.50;99.90;;;;;;5032065;28;20403;-70
2021/03/21 06:18:20;;;;;;;1999.90;999.90;;;5.50;99.90;;;;;;5032579;28;20994;-70
2021/03/21 06:21:11;;;;;;;1999.90;999.90;;;5.50;99.90;;;;;;5031788;28;20959;-69
2021/03/21 06:23:48;;;;;;;1999.90;999.90;;;5.50;99.90;;;;;;5031625;28;20391;-69
2021/03/21 06:26:20;;;;;;;1999.90;999.90;;;5.50;99.90;;;;;;5031201;28;20441;-69
2021/03/21 06:29:28;;;;;;;1999.90;999.90;;;5.60;99.90;;;;;;5031440;28;20411;-69
2021/03/21 06:31:56;;;;;;;1999.90;999.90;;;5.60;99.90;;;;;;5031469;28;20403;-70
2021/03/21 06:34:40;;;;;;;1999.90;999.90;;;5.60;99.90;;;;;;5031491;28;20399;-70
2021/03/21 06:37:30;;;;;;;1999.90;999.90;;;5.60;99.90;;;;;;5031133;28;20451;-70
2021/03/21 06:40:14;;;;;;;1999.90;999.90;;;5.60;99.90;;;;;;5031395;28;20422;-70
2021/03/21 06:42:46;;;;;;;1999.90;999.90;;;5.60;99.90;;;;;;5035406;28;20406;-70
2021/03/21 06:45:34;;;;;;;1999.90;999.90;;;5.60;99.90;;;;;;5035106;28;20399;-70
2021/03/21 06:48:18;;;;;;;1999.90;999.90;;;5.60;99.90;;;;;;5035290;28;20407;-70
2021/03/21 06:50:56;;;;;;;1999.90;999.90;;;5.60;99.90;;;;;;5034891;28;20427;-69
2021/03/21 06:53:27;;;;;;;1999.90;999.90;;;5.60;99.90;;;;;;5035076;28;20423;-69
2021/03/21 06:55:56;;;;;;;1999.90;999.90;;;5.60;99.90;;;;;;5034433;28;20407;-69
2021/03/21 06:58:53;;;;;;;1999.90;999.90;;;5.70;99.90;;;;;;5034743;28;20787;-69
2021/03/21 07:01:20;;;;;;;1999.90;999.90;;;5.70;99.90;;;;;;5034724;28;20415;-69
2021/03/21 07:04:19;;;;;;;1999.90;999.90;;;5.70;99.90;;;;;;5034597;28;20460;-70
2021/03/21 07:07:18;;;;;;;1999.90;999.90;;;5.70;99.90;;;;;;5034313;28;20794;-69
2021/03/21 07:10:21;;;;;;;1999.90;999.90;;;5.70;99.90;;;;;;5034396;28;20916;-70
2021/03/21 07:13:05;;;;;;;1999.90;999.90;;;5.80;99.90;;;;;;5034471;28;20402;-69
2021/03/21 07:15:42;;;;;;;1999.90;999.90;;;5.80;99.90;;;;;;5034285;28;20398;-69
2021/03/21 07:18:26;;;;;;;1999.90;999.90;;;5.80;99.90;;;;;;5034299;28;20458;-69
2021/03/21 07:21:10;;;;;;;1999.90;999.90;;;5.80;99.90;;;;;;5034379;28;20449;-69
2021/03/21 07:24:36;;;;;;;1999.90;999.90;;;5.80;99.90;;;;;;5034294;28;20395;-68
2021/03/21 07:27:11;;;;;;;1999.90;999.90;;;5.80;99.90;;;;;;5034005;28;20457;-68
2021/03/21 07:29:50;;;;;;;1999.90;999.90;;;5.80;99.90;;;;;;5034092;28;20425;-68
2021/03/21 07:32:55;;;;;;;1999.90;999.90;;;5.90;99.90;;;;;;5034007;28;20897;-68
2021/03/21 07:35:57;;;;;;;1999.90;999.90;;;5.90;99.90;;;;;;5033612;28;20422;-69
2021/03/21 07:38:41;;;;;;;1999.90;999.90;;;6.00;99.90;;;;;;5033970;28;20415;-69
2021/03/21 07:41:36;;;;;;;1999.90;999.90;;;6.20;99.90;;;;;;5033915;28;20887;-69
2021/03/21 07:44:19;;;;;;;1999.90;999.90;;;6.30;99.90;;;;;;5018832;28;20866;-68
2021/03/21 07:46:56;;;;;;;1999.90;999.90;;;6.40;99.90;;;;;;5033554;28;20904;-69
2021/03/21 07:49:41;;;;;;;1999.90;999.90;;;6.60;99.90;;;;;;5033729;28;20896;-69
2021/03/21 07:52:35;;;;;;;1999.90;999.90;;;6.60;99.90;;;;;;5032829;28;20391;-70
2021/03/21 07:55:19;;;;;;;1999.90;999.90;;;6.70;99.90;;;;;;5034194;28;20769;-69
2021/03/21 07:57:53;;;;;;;1999.90;999.90;;;6.70;99.90;;;;;;5033783;28;20503;-69
2021/03/21 08:00:20;;;;;;;1999.90;999.90;;;6.70;99.90;;;;;;5033576;28;20773;-69
2021/03/21 08:02:48;;;;;;;1999.90;999.90;;;6.70;99.90;;;;;;5033531;28;20399;-69
2021/03/21 08:05:20;;;;;;;1999.90;999.90;;;6.80;99.90;;;;;;5033234;28;20414;-69
2021/03/21 08:07:49;;;;;;;1999.90;999.90;;;6.80;99.90;;;;;;5033481;28;20469;-68
2021/03/21 08:10:26;;;;;;;1999.90;999.90;;;6.80;99.90;;;;;;5033015;28;20438;-69
2021/03/21 08:13:16;;;;;;;1999.90;999.90;;;6.70;99.90;;;;;;5033406;28;20452;-69
2021/03/21 08:15:42;;;;;;;1999.90;999.90;;;6.70;99.90;;;;;;5033039;28;20917;-69
2021/03/21 08:18:13;;;;;;;1999.90;999.90;;;6.80;99.90;;;;;;5033264;28;20455;-69
2021/03/21 08:20:46;;;;;;;1999.90;999.90;;;6.80;99.90;;;;;;5033039;28;20414;-69
2021/03/21 08:23:27;;;;;;;1999.90;999.90;;;6.80;99.90;;;;;;5033169;28;20887;-69
2021/03/21 08:25:55;;;;;;;1999.90;999.90;;;6.90;99.90;;;;;;5032883;28;20426;-69
2021/03/21 08:28:24;;;;;;;1999.90;999.90;;;7.00;99.90;;;;;;5033029;28;20413;-68
2021/03/21 08:30:56;;;;;;;1999.90;999.90;;;7.10;99.90;;;;;;5032945;28;20447;-69
2021/03/21 08:33:29;;;;;;;1999.90;999.90;;;7.30;99.90;;;;;;5032946;28;20770;-68
2021/03/21 08:36:17;;;;;;;1999.90;999.90;;;7.30;99.90;;;;;;5032868;28;20455;-69
2021/03/21 08:38:58;;;;;;;1999.90;999.90;;;7.30;99.90;;;;;;5032823;28;20442;-69
2021/03/21 08:41:26;;;;;;;1999.90;999.90;;;7.30;99.90;;;;;;5032646;28;20403;-69
2021/03/21 08:44:02;;;;;;;1999.90;999.90;;;7.20;99.90;;;;;;5032848;28;20735;-69
2021/03/21 08:46:29;;;;;;;1999.90;999.90;;;7.20;99.90;;;;;;5032295;28;20403;-68
2021/03/21 08:49:21;;;;;;;1999.90;999.90;;;7.00;99.90;;;;;;5032630;28;20398;-68
2021/03/21 08:51:47;;;;;;;1999.90;999.90;;;6.90;99.90;;;;;;5032690;28;20431;-68
2021/03/21 08:54:36;;;;;;;1999.90;999.90;;;6.90;99.90;;;;;;5032486;28;20403;-69
2021/03/21 08:57:07;;;;;;;1999.90;999.90;;;7.00;99.90;;;;;;5032241;28;20454;-68
2021/03/21 08:59:45;;;;;;;1999.90;999.90;;;7.10;99.90;;;;;;5032446;28;20489;-68
2021/03/21 09:02:16;;;;;;;1999.90;999.90;;;7.10;99.90;;;;;;5033819;28;20474;-69
2021/03/21 09:04:45;;;;;;;1999.90;999.90;;;7.20;99.90;;;;;;5033451;28;20403;-69
2021/03/21 09:07:15;;;;;;;1999.90;999.90;;;7.20;99.90;;;;;;5034184;28;20819;-70
2021/03/21 09:09:41;;;;;;;1999.90;999.90;;;7.20;99.90;;;;;;5033583;28;20805;-70
2021/03/21 09:12:29;;;;;;;1999.90;999.90;;;7.20;99.90;;;;;;5034071;28;20411;-70
2021/03/21 09:15:17;;;;;;;1999.90;999.90;;;7.30;99.90;;;;;;5033175;28;20445;-69
2021/03/21 09:18:11;;;;;;;1999.90;999.90;;;7.40;99.90;;;;;;5033088;28;20865;-70
2021/03/21 09:20:40;;;;;;;1999.90;999.90;;;7.50;99.90;;;;;;5014482;28;20431;-69
2021/03/21 09:23:28;;;;;;;1999.90;999.90;;;7.40;99.90;;;;;;5033028;28;20400;-70
2021/03/21 09:25:56;;;;;;;1999.90;999.90;;;7.40;99.90;;;;;;5033115;28;20402;-69
2021/03/21 09:28:24;;;;;;;1999.90;999.90;;;7.50;99.90;;;;;;5032508;28;20403;-68
2021/03/21 09:30:52;;;;;;;1999.90;999.90;;;7.50;99.90;;;;;;5032848;28;20509;-69
2021/03/21 09:33:25;;;;;;;1999.90;999.90;;;7.40;99.90;;;;;;5033290;28;20486;-70
2021/03/21 09:36:03;;;;;;;1999.90;999.90;;;7.30;99.90;;;;;;5032818;28;20824;-69
2021/03/21 09:38:36;;;;;;;1999.90;999.90;;;7.20;99.90;;;;;;5033077;28;20415;-69
2021/03/21 09:41:11;;;;;;;1999.90;999.90;;;7.30;99.90;;;;;;5032602;28;20415;-69
2021/03/21 09:43:39;;;;;;;1999.90;999.90;;;7.30;99.90;;;;;;5032045;28;20962;-69
2021/03/21 09:46:30;;;;;;;1999.90;999.90;;;7.20;99.90;;;;;;5031557;28;20452;-68
2021/03/21 09:49:04;;;;;;;1999.90;999.90;;;7.10;99.90;;;;;;5031849;28;20410;-69
2021/03/21 09:51:50;;;;;;;1999.90;999.90;;;7.00;99.90;;;;;;5031931;28;20769;-68
2021/03/21 09:54:18;;;;;;;1999.90;999.90;;;6.90;99.90;;;;;;5031833;28;20406;-68
2021/03/21 09:56:53;;;;;;;1999.90;999.90;;;6.90;99.90;;;;;;5031492;28;20530;-68
2021/03/21 09:59:41;;;;;;;1999.90;999.90;;;7.00;99.90;;;;;;5029554;28;20426;-69
2021/03/21 10:02:34;;;;;;;1999.90;999.90;;;7.10;99.90;;;;;;5027204;28;21143;-68
2021/03/21 10:05:31;;;;;;;1999.90;999.90;;;7.10;99.90;;;;;;5027227;28;20411;-68
2021/03/21 10:07:59;;;;;;;1999.90;999.90;;;7.20;99.90;;;;;;5028709;28;20537;-68
2021/03/21 10:10:41;;;;;;;1999.90;999.90;;;7.00;99.90;;;;;;5027419;28;20574;-69
2021/03/21 10:13:07;;;;;;;1999.90;999.90;;;6.80;99.90;;;;;;5027410;28;20553;-71
2021/03/21 10:16:18;;;;;;;1999.90;999.90;;;6.80;99.90;;;;;;5027835;28;20402;-70
2021/03/21 10:18:50;;;;;;;1999.90;999.90;;;6.90;99.90;;;;;;5031168;28;20426;-69
2021/03/21 10:21:24;;;;;;;1999.90;999.90;;;6.90;99.90;;;;;;5031263;28;20921;-70
2021/03/21 10:23:57;;;;;;;1999.90;999.90;;;7.00;99.90;;;;;;5031509;28;20522;-69
2021/03/21 10:26:29;;;;;;;1999.90;999.90;;;7.20;99.90;;;;;;5030885;28;20988;-70
2021/03/21 10:28:57;;;;;;;1999.90;999.90;;;7.40;99.90;;;;;;5034485;28;20407;-69
2021/03/21 10:31:23;;;;;;;1999.90;999.90;;;7.50;99.90;;;;;;5034428;28;20395;-71
2021/03/21 10:33:52;;;;;;;1999.90;999.90;;;7.60;99.90;;;;;;5034369;28;20493;-74
2021/03/21 10:36:40;;;;;;;1999.90;999.90;;;7.60;99.90;;;;;;5033981;28;20411;-72
2021/03/21 10:39:10;;;;;;;1999.90;999.90;;;7.40;99.90;;;;;;5034338;28;21202;-70
2021/03/21 10:41:59;;;;;;;1999.90;999.90;;;7.40;99.90;;;;;;5034572;28;20399;-68
2021/03/21 10:44:50;;;;;;;1999.90;999.90;;;7.40;99.90;;;;;;5031575;28;20907;-69
2021/03/21 10:47:22;;;;;;;1999.90;999.90;;;7.40;99.90;;;;;;5032227;28;20509;-69
2021/03/21 10:49:55;;;;;;;1999.90;999.90;;;7.50;99.90;;;;;;5032249;28;20435;-71
2021/03/21 10:52:22;;;;;;;1999.90;999.90;;;7.60;99.90;;;;;;5032718;28;20491;-72
2021/03/21 10:54:48;;;;;;;1999.90;999.90;;;7.50;99.90;;;;;;5031766;28;20399;-71
2021/03/21 10:57:44;;;;;;;1999.90;999.90;;;7.60;99.90;;;;;;5031901;28;20454;-70
2021/03/21 11:00:10;;;;;;;1999.90;999.90;;;7.50;99.90;;;;;;5032054;28;20419;-70
2021/03/21 11:02:36;;;;;;;1999.90;999.90;;;7.60;99.90;;;;;;5032237;28;20549;-70
2021/03/21 11:05:21;;;;;;;1999.90;999.90;;;7.60;99.90;;;;;;5031475;28;20219;-70
2021/03/21 11:07:48;;;;;;;1999.90;999.90;;;7.60;99.90;;;;;;5032114;28;20496;-70
2021/03/21 11:10:14;;;;;;;1999.90;999.90;;;7.80;99.90;;;;;;5031974;28;20439;-70
2021/03/21 11:12:42;;;;;;;1999.90;999.90;;;7.90;99.90;;;;;;5031645;28;20399;-70
2021/03/21 11:15:20;;;;;;;1999.90;999.90;;;7.90;99.90;;;;;;5032117;28;20396;-71
2021/03/21 11:17:46;;;;;;;1999.90;999.90;;;7.90;99.90;;;;;;5031572;28;20455;-71
2021/03/21 11:20:34;;;;;;;1999.90;999.90;;;7.90;99.90;;;;;;5031811;28;20419;-71
2021/03/21 11:23:06;;;;;;;1999.90;999.90;;;7.90;99.90;;;;;;5032360;28;20627;-71
2021/03/21 11:25:39;;;;;;;1999.90;999.90;;;7.90;99.90;;;;;;5031991;28;20407;-71
2021/03/21 11:28:06;;;;;;;1999.90;999.90;;;7.80;99.90;;;;;;5031567;28;20406;-71
2021/03/21 11:30:33;;;;;;;1999.90;999.90;;;7.80;99.90;;;;;;5032049;28;20797;-72
2021/03/21 11:33:27;;;;;;;1999.90;999.90;;;7.90;99.90;;;;;;5031966;28;20426;-70
2021/03/21 11:36:26;;;;;;;1999.90;999.90;;;7.80;99.90;;;;;;5031038;28;20502;-70
2021/03/21 11:38:53;;;;;;;1999.90;999.90;;;7.80;99.90;;;;;;5031702;28;20415;-70
2021/03/21 11:41:28;;;;;;;1999.90;999.90;;;7.90;99.90;;;;;;5030987;28;20475;-69
2021/03/21 11:44:16;;;;;;;1999.90;999.90;;;7.90;99.90;;;;;;5031331;28;20383;-70
2021/03/21 11:46:42;;;;;;;1999.90;999.90;;;8.00;99.90;;;;;;5031658;28;20495;-69
2021/03/21 11:49:09;;;;;;;1999.90;999.90;;;8.00;99.90;;;;;;5030612;28;20507;-70
2021/03/21 11:51:35;;;;;;;1999.90;999.90;;;8.00;99.90;;;;;;5031308;28;20222;-70
2021/03/21 11:54:01;;;;;;;1999.90;999.90;;;8.10;99.90;;;;;;5031458;28;20410;-70
2021/03/21 11:56:53;;;;;;;1999.90;999.90;;;8.20;99.90;;;;;;5030746;28;20533;-70
2021/03/21 11:59:25;;;;;;;1999.90;999.90;;;8.40;99.90;;;;;;5031199;28;20426;-70
2021/03/21 12:01:56;;;;;;;1999.90;999.90;;;8.70;99.90;;;;;;5031482;28;20496;-70
2021/03/21 12:04:38;;;;;;;1999.90;999.90;;;8.70;99.90;;;;;;5030741;28;20392;-69
2021/03/21 12:07:05;;;;;;;1999.90;999.90;;;8.70;99.90;;;;;;5031387;28;20453;-70
2021/03/21 12:09:56;;;;;;;1999.90;999.90;;;8.70;99.90;;;;;;5031103;28;20439;-71
2021/03/21 12:12:42;;;;;;;1999.90;999.90;;;8.50;99.90;;;;;;5030165;28;20447;-70
2021/03/21 12:15:14;;;;;;;1999.90;999.90;;;8.40;99.90;;;;;;5030944;28;20431;-70
2021/03/21 12:17:42;;;;;;;1999.90;999.90;;;8.40;99.90;;;;;;5031002;28;20447;-70
2021/03/21 12:20:54;;;;;;;1999.90;999.90;;;8.40;99.90;;;;;;5030396;28;20501;-72
2021/03/21 12:23:37;;;;;;;1999.90;999.90;;;8.40;99.90;;;;;;5008283;28;20796;-70
2021/03/21 12:26:21;;;;;;;1999.90;999.90;;;8.50;99.90;;;;;;5030709;28;20495;-70
2021/03/21 12:29:23;;;;;;;1999.90;999.90;;;8.80;99.90;;;;;;5031399;28;20750;-70
2021/03/21 12:31:50;;;;;;;1999.90;999.90;;;8.90;99.90;;;;;;5030653;28;20430;-69
2021/03/21 12:34:34;;;;;;;1999.90;999.90;;;8.80;99.90;;;;;;5030320;28;20405;-70
2021/03/21 12:37:10;;;;;;;1999.90;999.90;;;8.80;99.90;;;;;;5030158;28;20960;-70
2021/03/21 12:39:42;;;;;;;1999.90;999.90;;;9.10;99.90;;;;;;5030177;28;20452;-71
2021/03/21 12:42:26;;;;;;;1999.90;999.90;;;9.20;99.90;;;;;;5030255;28;20816;-70
2021/03/21 12:45:10;;;;;;;1999.90;999.90;;;9.30;99.90;;;;;;5030042;28;20503;-72
2021/03/21 12:47:40;;;;;;;1999.90;999.90;;;9.50;99.90;;;;;;5029312;28;20423;-71
2021/03/21 12:50:24;;;;;;;1999.90;999.90;;;9.50;99.90;;;;;;5030545;28;20427;-70
2021/03/21 12:52:49;;;;;;;1999.90;999.90;;;9.20;99.90;;;;;;5030232;28;20930;-70
2021/03/21 12:55:16;;;;;;;1999.90;999.90;;;9.20;99.90;;;;;;5029613;28;20408;-70
2021/03/21 12:57:43;;;;;;;1999.90;999.90;;;9.30;99.90;;;;;;5030107;28;20226;-71